Bunga Kelana 6 — 9MCZ6 — position and weather

sailwx.info

Track history (hours):
 
Tides and Currents Weather Stations Pressure Air Temp Water Temp Dewpoint Dewpoint Depression Visibility Wind Speed Wind Dir Waves Ship Positions

Bunga Kelana 6

Last reported at 2018-May-26 03:56 UTC. Time now 2018-May-26 04:22 UTC.
Position N 29°26' W 093°40'.

Length 244 m; draft 12.2 m.

Type: Tanker. MMSI: 533369000.

Date/timePositionNaut miles runAvg speedWind from/ knotsBaromVisibWave heightAir tempDewpointWater temp
2018-May-26 03:56N 29°26' W 093°40'2 3.4
2018-May-26 03:29N 29°25' W 093°39'0 0.0
2018-May-26 02:59N 29°25' W 093°39'0 0.0
2018-May-26 02:26N 29°25' W 093°39'0 0.0
2018-May-26 01:56N 29°25' W 093°39'0 0.0
2018-May-26 01:10N 29°25' W 093°39'0 0.1
2018-May-26 00:52N 29°25' W 093°39'0 0.0
2018-May-26 00:28N 29°25' W 093°39'0 0.0
2018-May-24 19:55N 29°25' W 093°39'0 0.0
2018-May-24 17:28N 29°25' W 093°39'0 0.0
2018-May-24 16:04N 29°25' W 093°39'0 0.0
2018-May-24 15:37N 29°25' W 093°39'0 0.0
2018-May-24 15:16N 29°25' W 093°39'0 0.0
2018-May-24 13:40N 29°25' W 093°39'0 0.0
2018-May-24 13:28N 29°25' W 093°39'0 0.0
2018-May-24 08:07N 29°25' W 093°39'0 0.0
2018-May-24 07:43N 29°25' W 093°39'0 0.0
2018-May-24 07:25N 29°25' W 093°39'0 0.0
2018-May-24 02:22N 29°25' W 093°39'0 0.1
2018-May-24 00:52N 29°25' W 093°39'1 2.3
2018-May-24 00:29N 29°24' W 093°40'11 9.0
2018-May-23 23:16N 29°13' W 093°39'512.5
2018-May-23 22:51N 29°08' W 093°40'512.5
2018-May-23 22:27N 29°03' W 093°40'35 1.8
2018-May-23 03:08N 28°30' W 093°51'0 0.1
2018-May-23 03:00N 28°30' W 093°51'2 0.9
2018-May-23 01:15N 28°30' W 093°49'51 7.1
2018-May-22 18:05N 29°20' W 093°41'113.2
2018-May-22 18:00N 29°22' W 093°41'612.4
2018-May-22 17:30N 29°28' W 093°40'611.6
2018-May-22 17:00N 29°32' W 093°44'612.9
2018-May-22 16:30N 29°37' W 093°49'510.4
2018-May-22 16:00N 29°42' W 093°51'4 8.0
2018-May-22 15:31N 29°45' W 093°53'4 7.6
2018-May-22 15:00N 29°48' W 093°57'4 7.8
2018-May-22 14:30N 29°51' W 093°56'4 7.0
2018-May-22 14:00N 29°54' W 093°54'3 6.6
2018-May-22 13:30N 29°57' W 093°52'3 5.2
2018-May-22 13:00N 29°59' W 093°53'3 6.8
2018-May-22 12:30N 29°60' W 093°57'1 1.6
2018-May-22 12:00N 29°60' W 093°56'0 0.0
2018-May-22 11:30N 29°60' W 093°56'0 0.0
2018-May-22 11:00N 29°60' W 093°56'0 0.0
2018-May-22 10:27N 29°60' W 093°56'0 0.0
2018-May-22 10:00N 29°60' W 093°56'0 0.0
2018-May-22 09:30N 29°60' W 093°56'0 0.0
2018-May-22 09:00N 29°60' W 093°56'0 0.0
2018-May-22 08:30N 29°60' W 093°56'0 0.0
2018-May-22 08:00N 29°60' W 093°56'0 0.0
2018-May-22 07:30N 29°60' W 093°56'0 0.0
2018-May-22 07:00N 29°60' W 093°56'0 0.0
2018-May-22 06:30N 29°60' W 093°56'0 0.0
2018-May-22 06:00N 29°60' W 093°56'0 0.0
2018-May-22 05:30N 29°60' W 093°56'0 0.0
2018-May-22 05:00N 29°60' W 093°56'0 0.0
2018-May-22 04:30N 29°60' W 093°56'0 0.0
2018-May-22 03:57N 29°60' W 093°56'0 0.0
2018-May-22 03:30N 29°60' W 093°56'0 0.0
2018-May-22 03:00N 29°60' W 093°56'0 0.0
2018-May-22 02:30N 29°60' W 093°56'0 0.0
2018-May-22 02:00N 29°60' W 093°56'0 0.0
2018-May-22 01:30N 29°60' W 093°56'0 0.0
2018-May-22 01:00N 29°60' W 093°56'0 0.0
2018-May-22 00:30N 29°60' W 093°56'0 0.0
2018-May-22 00:00N 29°60' W 093°56'0 0.0
2018-May-21 23:30N 29°60' W 093°56'0 0.0
2018-May-21 23:00N 29°60' W 093°56'0 0.0
2018-May-21 22:30N 29°60' W 093°56'0 0.0
2018-May-21 22:00N 29°60' W 093°56'0 0.0
2018-May-21 21:30N 29°60' W 093°56'0 0.0
2018-May-21 21:00N 29°60' W 093°56'0 0.0
2018-May-21 20:30N 29°60' W 093°56'0 0.0
2018-May-21 20:00N 29°60' W 093°56'0 0.0
2018-May-21 19:30N 29°60' W 093°56'0 0.0
2018-May-21 19:00N 29°60' W 093°56'0 0.0
2018-May-21 18:30N 29°60' W 093°56'0 0.0
2018-May-21 18:00N 29°60' W 093°56'0 0.0
2018-May-21 17:30N 29°60' W 093°56'0 0.0
2018-May-21 17:00N 29°60' W 093°56'0 0.0
2018-May-21 16:30N 29°60' W 093°56'0 0.0
2018-May-21 16:00N 29°60' W 093°56'0 0.0
2018-May-21 15:30N 29°60' W 093°56'0 0.0
2018-May-21 15:00N 29°60' W 093°56'0 0.0
2018-May-21 14:27N 29°60' W 093°56'0 0.0
2018-May-21 14:00N 29°60' W 093°56'0 0.0
2018-May-21 13:30N 29°60' W 093°56'0 0.0
2018-May-21 13:00N 29°60' W 093°56'0 0.0
2018-May-21 12:30N 29°60' W 093°56'0 0.0
2018-May-21 12:00N 29°60' W 093°56'0 0.0
2018-May-21 11:30N 29°60' W 093°56'0 0.0
2018-May-21 11:00N 29°60' W 093°56'0 0.0
2018-May-21 10:30N 29°60' W 093°56'0 0.0
2018-May-21 10:00N 29°60' W 093°56'0 0.0
2018-May-21 09:27N 29°60' W 093°56'0 0.0
2018-May-21 09:00N 29°60' W 093°56'0 0.0
2018-May-21 08:30N 29°60' W 093°56'0 0.0
2018-May-21 08:00N 29°60' W 093°56'0 0.0
2018-May-21 07:30N 29°60' W 093°56'0 0.0
2018-May-21 07:00N 29°60' W 093°56'0 0.0
2018-May-21 06:30N 29°60' W 093°56'0 0.0
2018-May-21 06:00N 29°60' W 093°56'0 0.0
2018-May-21 05:30N 29°60' W 093°56'0 0.0
2018-May-21 05:00N 29°60' W 093°56'0 0.0
2018-May-21 04:30N 29°60' W 093°56'0 0.0
2018-May-21 04:00N 29°60' W 093°56'0 0.0
2018-May-21 03:30N 29°60' W 093°56'0 0.0
2018-May-21 03:00N 29°60' W 093°56'0 0.0
2018-May-21 02:30N 29°60' W 093°56'0 0.0
2018-May-21 02:00N 29°60' W 093°56'0 0.0
2018-May-21 01:30N 29°60' W 093°56'0 0.0
2018-May-21 01:00N 29°60' W 093°56'0 0.0
2018-May-21 00:30N 29°60' W 093°56'0 0.0
2018-May-21 00:00N 29°60' W 093°56'0 0.0
2018-May-20 23:30N 29°60' W 093°56'0 0.0
2018-May-20 23:00N 29°60' W 093°56'0 0.0
2018-May-20 22:30N 29°60' W 093°56'0 0.0
2018-May-20 22:00N 29°60' W 093°56'0 0.0
2018-May-20 21:30N 29°60' W 093°56'0 0.0
2018-May-20 21:00N 29°60' W 093°56'0 0.0
2018-May-20 20:30N 29°60' W 093°56'0 0.0
2018-May-20 20:00N 29°60' W 093°56'0 0.0
2018-May-20 19:30N 29°60' W 093°56'0 0.0
2018-May-20 19:00N 29°60' W 093°56'0 0.0
2018-May-20 18:30N 29°60' W 093°56'0 0.0
2018-May-20 18:00N 29°60' W 093°56'0 0.0
2018-May-20 17:30N 29°60' W 093°56'0 0.0
2018-May-20 16:57N 29°60' W 093°56'0 0.0
2018-May-20 16:30N 29°60' W 093°56'0 0.0
2018-May-20 16:00N 29°60' W 093°56'0 0.0
2018-May-20 15:30N 29°60' W 093°56'0 0.0
2018-May-20 15:00N 29°60' W 093°56'0 0.0
2018-May-20 14:30N 29°60' W 093°56'0 0.0
2018-May-20 14:00N 29°60' W 093°56'0 0.0
2018-May-20 13:30N 29°60' W 093°56'0 0.0
2018-May-20 13:00N 29°60' W 093°56'0 0.0
2018-May-20 12:30N 29°60' W 093°56'0 0.0
2018-May-20 11:57N 29°60' W 093°56'0 0.0
2018-May-20 11:30N 29°60' W 093°56'0 0.0
2018-May-20 11:00N 29°60' W 093°56'0 0.0
2018-May-20 10:30N 29°60' W 093°56'0 0.0
2018-May-20 10:00N 29°60' W 093°56'0 0.0
2018-May-20 09:30N 29°60' W 093°56'0 0.0
2018-May-20 09:00N 29°60' W 093°56'0 0.0
2018-May-20 08:30N 29°60' W 093°56'0 0.0
2018-May-20 08:00N 29°60' W 093°56'0 0.0
2018-May-20 07:30N 29°60' W 093°56'0 0.0
2018-May-20 07:00N 29°60' W 093°56'0 0.0
2018-May-20 06:30N 29°60' W 093°56'0 0.0
2018-May-20 06:00N 29°60' W 093°56'0 0.0
2018-May-20 05:30N 29°60' W 093°56'0 0.0
2018-May-20 05:00N 29°60' W 093°56'0 0.0
2018-May-20 04:30N 29°60' W 093°56'0 0.0
2018-May-20 04:00N 29°60' W 093°56'0 0.0
2018-May-20 03:30N 29°60' W 093°56'0 0.0
2018-May-20 03:00N 29°60' W 093°56'0 0.0
2018-May-20 02:30N 29°60' W 093°56'0 0.0
2018-May-20 02:00N 29°60' W 093°56'0 0.0
2018-May-20 01:30N 29°60' W 093°56'0 0.0
2018-May-20 01:00N 29°60' W 093°56'0 0.0
2018-May-20 00:27N 29°60' W 093°56'0 0.0
2018-May-20 00:00N 29°60' W 093°56'0 0.0
2018-May-19 23:30N 29°60' W 093°56'0 0.0
2018-May-19 23:00N 29°60' W 093°56'0 0.0
2018-May-19 22:30N 29°60' W 093°56'0 0.0
2018-May-19 22:00N 29°60' W 093°56'2 4.7
2018-May-19 21:30N 29°59' W 093°54'2 4.5
2018-May-19 21:00N 29°58' W 093°51'3 5.4
2018-May-19 20:30N 29°56' W 093°53'3 6.7
2018-May-19 20:00N 29°53' W 093°55'4 7.1
2018-May-19 19:30N 29°50' W 093°57'3 6.8
2018-May-19 19:00N 29°47' W 093°57'4 8.4
2018-May-19 18:30N 29°44' W 093°53'5 9.8
2018-May-19 18:00N 29°40' W 093°50'611.2
2018-May-19 17:30N 29°35' W 093°47'611.5
2018-May-19 17:00N 29°31' W 093°42'610.2
2018-May-19 16:28N 29°26' W 093°40'2 5.5
2018-May-19 16:00N 29°23' W 093°40'4 0.4
2018-May-19 06:11N 29°26' W 093°37'0 0.0
2018-May-19 04:47N 29°26' W 093°37'0 0.2
2018-May-19 04:29N 29°26' W 093°37'0 0.1
2018-May-19 03:56N 29°26' W 093°37'0 0.1
2018-May-19 03:29N 29°26' W 093°37'0 0.0
2018-May-19 02:56N 29°26' W 093°37'0 0.0
2018-May-19 02:23N 29°26' W 093°37'0 0.0
2018-May-19 01:59N 29°26' W 093°37'0 0.0
2018-May-18 23:47N 29°26' W 093°37'0 0.0
2018-May-18 23:20N 29°26' W 093°37'0 0.0
2018-May-18 20:44N 29°26' W 093°37'0 0.0
2018-May-18 20:29N 29°26' W 093°37'0 0.0
2018-May-18 19:59N 29°26' W 093°37'0 0.0
2018-May-18 19:14N 29°26' W 093°37'0 0.0
2018-May-18 18:59N 29°26' W 093°37'0 0.0
2018-May-18 18:29N 29°26' W 093°37'0 0.0
2018-May-18 17:59N 29°26' W 093°37'0 0.0
2018-May-18 17:29N 29°26' W 093°37'0 0.0
2018-May-18 16:59N 29°26' W 093°37'0 0.0
2018-May-18 16:29N 29°26' W 093°37'0 0.0
2018-May-18 15:59N 29°26' W 093°37'0 0.0
2018-May-18 15:29N 29°26' W 093°37'0 0.0
2018-May-18 14:59N 29°26' W 093°37'0 0.0
2018-May-18 14:26N 29°26' W 093°37'0 0.0
2018-May-18 13:59N 29°26' W 093°37'0 0.0
2018-May-18 13:26N 29°26' W 093°37'0 0.0
2018-May-18 12:38N 29°26' W 093°37'0 0.0
2018-May-18 12:17N 29°26' W 093°37'0 0.0
2018-May-18 11:56N 29°26' W 093°37'0 0.0
2018-May-18 11:26N 29°26' W 093°37'0 0.0
2018-May-18 10:50N 29°26' W 093°37'0 0.0
2018-May-18 10:23N 29°26' W 093°37'0 0.0
2018-May-18 09:56N 29°26' W 093°37'0 0.0
2018-May-18 09:29N 29°26' W 093°37'0 0.0
2018-May-18 08:56N 29°26' W 093°37'0 0.0
2018-May-18 08:29N 29°26' W 093°37'0 0.0
2018-May-18 07:59N 29°26' W 093°37'0 0.0
2018-May-18 07:29N 29°26' W 093°37'0 0.0
2018-May-18 06:59N 29°26' W 093°37'0 0.0
2018-May-18 06:29N 29°26' W 093°37'0 0.0
2018-May-18 05:56N 29°26' W 093°37'0 0.0
2018-May-18 05:29N 29°26' W 093°37'0 0.0
2018-May-18 04:59N 29°26' W 093°37'0 0.0
2018-May-18 04:29N 29°26' W 093°37'0 0.0
2018-May-18 03:56N 29°26' W 093°37'0 0.0
2018-May-18 03:29N 29°26' W 093°37'0 0.0
2018-May-18 02:59N 29°26' W 093°37'0 0.0
2018-May-18 02:29N 29°26' W 093°37'0 0.0
2018-May-18 01:59N 29°26' W 093°37'0 0.0
2018-May-18 01:29N 29°26' W 093°37'0 0.0
2018-May-18 00:59N 29°26' W 093°37'0 0.0
2018-May-18 00:29N 29°26' W 093°37'0 0.0
2018-May-17 23:56N 29°26' W 093°37'0 0.0
2018-May-17 23:29N 29°26' W 093°37'0 0.0
2018-May-17 22:59N 29°26' W 093°37'0 0.0
2018-May-17 22:29N 29°26' W 093°37'0 0.0
2018-May-17 21:59N 29°26' W 093°37'0 0.0
2018-May-17 21:26N 29°26' W 093°37'0 0.0
2018-May-17 20:59N 29°26' W 093°37'0 0.0
2018-May-17 20:29N 29°26' W 093°37'0 0.0
2018-May-17 19:47N 29°26' W 093°37'0 0.0
2018-May-17 19:29N 29°26' W 093°37'0 0.0
2018-May-17 18:59N 29°26' W 093°37'0 0.0
2018-May-17 18:29N 29°26' W 093°37'0 0.0
2018-May-17 17:59N 29°26' W 093°37'0 0.1
2018-May-17 17:29N 29°26' W 093°37'0 0.0
2018-May-17 16:56N 29°26' W 093°37'0 0.0
2018-May-17 16:29N 29°26' W 093°37'0 0.0
2018-May-17 15:59N 29°26' W 093°37'0 0.0
2018-May-17 15:29N 29°26' W 093°37'0 0.0
2018-May-17 14:56N 29°26' W 093°37'0 0.0
2018-May-17 14:29N 29°26' W 093°37'0 0.0
2018-May-17 13:59N 29°26' W 093°37'0 0.0
2018-May-17 13:29N 29°26' W 093°37'0 0.0
2018-May-17 12:59N 29°26' W 093°37'0 0.0
2018-May-17 12:23N 29°26' W 093°37'0 0.0
2018-May-17 11:59N 29°26' W 093°37'0 0.0
2018-May-17 11:29N 29°26' W 093°37'0 0.0
2018-May-17 10:56N 29°26' W 093°37'0 0.0
2018-May-17 10:26N 29°26' W 093°37'0 0.0
2018-May-17 09:53N 29°26' W 093°37'0 0.0
2018-May-17 09:29N 29°26' W 093°37'0 0.0
2018-May-17 08:59N 29°26' W 093°37'0 0.0
2018-May-17 08:20N 29°26' W 093°37'0 0.0
2018-May-17 07:53N 29°26' W 093°37'0 0.1
2018-May-17 07:20N 29°26' W 093°37'0 0.0
2018-May-17 06:50N 29°26' W 093°37'0 0.0
2018-May-17 06:29N 29°26' W 093°37'0 0.0
2018-May-17 05:59N 29°26' W 093°37'0 0.0
2018-May-17 05:29N 29°26' W 093°37'0 0.1
2018-May-17 04:56N 29°26' W 093°37'0 0.0
2018-May-17 04:26N 29°26' W 093°37'0 0.0
2018-May-17 03:59N 29°26' W 093°37'0 0.0
2018-May-17 03:23N 29°26' W 093°37'0 0.1
2018-May-17 02:59N 29°26' W 093°37'0 0.1
2018-May-17 02:29N 29°26' W 093°37'0 0.1
2018-May-17 01:59N 29°26' W 093°37'0 0.0
2018-May-17 01:29N 29°26' W 093°37'0 0.1
2018-May-17 00:59N 29°26' W 093°37'0 0.0
2018-May-17 00:29N 29°26' W 093°37'0 0.0
2018-May-16 23:59N 29°26' W 093°37'0 0.0
2018-May-16 23:29N 29°26' W 093°37'0 0.0
2018-May-16 22:59N 29°26' W 093°37'0 0.0
2018-May-16 22:29N 29°26' W 093°37'0 0.0
2018-May-16 21:59N 29°26' W 093°37'0 0.0
2018-May-16 21:29N 29°26' W 093°37'0 0.1
2018-May-16 20:59N 29°26' W 093°37'0 0.1
2018-May-16 20:29N 29°26' W 093°37'0 0.1
2018-May-16 19:56N 29°26' W 093°37'0 0.1
2018-May-16 19:29N 29°26' W 093°37'0 0.1
2018-May-16 18:59N 29°26' W 093°37'0 0.1
2018-May-16 18:29N 29°26' W 093°37'0 0.1
2018-May-16 17:59N 29°26' W 093°37'0 0.1
2018-May-16 17:29N 29°26' W 093°37'0 0.1
2018-May-16 16:59N 29°26' W 093°37'0 0.0
2018-May-16 16:29N 29°26' W 093°37'0 0.0
2018-May-16 15:59N 29°26' W 093°37'0 0.0
2018-May-16 15:29N 29°26' W 093°37'0 0.0
2018-May-16 14:59N 29°26' W 093°37'0 0.0
2018-May-16 14:29N 29°26' W 093°37'0 0.0
2018-May-16 13:59N 29°26' W 093°37'0 0.0
2018-May-16 13:29N 29°26' W 093°37'0 0.0
2018-May-16 12:59N 29°26' W 093°37'0 0.1
2018-May-16 12:26N 29°26' W 093°37'0 0.0
2018-May-16 11:59N 29°26' W 093°37'0 0.1
2018-May-16 11:29N 29°26' W 093°37'0 0.0
2018-May-16 10:59N 29°26' W 093°37'0 0.1
2018-May-16 10:29N 29°26' W 093°37'0 0.1
2018-May-16 09:59N 29°26' W 093°37'0 0.0
2018-May-16 09:29N 29°26' W 093°37'0 0.0
2018-May-16 08:59N 29°26' W 093°37'0 0.1
2018-May-16 08:20N 29°26' W 093°37'0 0.0
2018-May-16 07:59N 29°26' W 093°37'0 0.0
2018-May-16 07:29N 29°26' W 093°37'0 0.0
2018-May-16 06:59N 29°26' W 093°37'0 0.1
2018-May-16 06:26N 29°26' W 093°37'0 0.1
2018-May-16 05:56N 29°26' W 093°37'0 0.2
2018-May-16 05:29N 29°26' W 093°38'0 0.2
2018-May-16 04:59N 29°26' W 093°37'0 0.1
2018-May-16 04:29N 29°26' W 093°37'0 0.1
2018-May-16 03:59N 29°26' W 093°37'  
Track history (hours):
 
Tides and Currents Weather Stations Pressure Air Temp Water Temp Dewpoint Dewpoint Depression Visibility Wind Speed Wind Dir Waves Ship Positions

Bunga Kelana 6

Last reported at 2018-May-26 03:56 UTC. Time now 2018-May-26 04:22 UTC.
Position N 29°26' W 093°40'.

Length 244 m; draft 12.2 m.

Type: Tanker. MMSI: 533369000.

Date/timePositionNaut miles runAvg speedWind from/ knotsBaromVisibWave heightAir tempDewpointWater temp
2018-May-26 03:56N 29°26' W 093°40'2 3.4
2018-May-26 03:29N 29°25' W 093°39'0 0.0
2018-May-26 02:59N 29°25' W 093°39'0 0.0
2018-May-26 02:26N 29°25' W 093°39'0 0.0
2018-May-26 01:56N 29°25' W 093°39'0 0.0
2018-May-26 01:10N 29°25' W 093°39'0 0.1
2018-May-26 00:52N 29°25' W 093°39'0 0.0
2018-May-26 00:28N 29°25' W 093°39'0 0.0
2018-May-24 19:55N 29°25' W 093°39'0 0.0
2018-May-24 17:28N 29°25' W 093°39'0 0.0
2018-May-24 16:04N 29°25' W 093°39'0 0.0
2018-May-24 15:37N 29°25' W 093°39'0 0.0
2018-May-24 15:16N 29°25' W 093°39'0 0.0
2018-May-24 13:40N 29°25' W 093°39'0 0.0
2018-May-24 13:28N 29°25' W 093°39'0 0.0
2018-May-24 08:07N 29°25' W 093°39'0 0.0
2018-May-24 07:43N 29°25' W 093°39'0 0.0
2018-May-24 07:25N 29°25' W 093°39'0 0.0
2018-May-24 02:22N 29°25' W 093°39'0 0.1
2018-May-24 00:52N 29°25' W 093°39'1 2.3
2018-May-24 00:29N 29°24' W 093°40'11 9.0
2018-May-23 23:16N 29°13' W 093°39'512.5
2018-May-23 22:51N 29°08' W 093°40'512.5
2018-May-23 22:27N 29°03' W 093°40'35 1.8
2018-May-23 03:08N 28°30' W 093°51'0 0.1
2018-May-23 03:00N 28°30' W 093°51'2 0.9
2018-May-23 01:15N 28°30' W 093°49'51 7.1
2018-May-22 18:05N 29°20' W 093°41'113.2
2018-May-22 18:00N 29°22' W 093°41'612.4
2018-May-22 17:30N 29°28' W 093°40'611.6
2018-May-22 17:00N 29°32' W 093°44'612.9
2018-May-22 16:30N 29°37' W 093°49'510.4
2018-May-22 16:00N 29°42' W 093°51'4 8.0
2018-May-22 15:31N 29°45' W 093°53'4 7.6
2018-May-22 15:00N 29°48' W 093°57'4 7.8
2018-May-22 14:30N 29°51' W 093°56'4 7.0
2018-May-22 14:00N 29°54' W 093°54'3 6.6
2018-May-22 13:30N 29°57' W 093°52'3 5.2
2018-May-22 13:00N 29°59' W 093°53'3 6.8
2018-May-22 12:30N 29°60' W 093°57'1 1.6
2018-May-22 12:00N 29°60' W 093°56'0 0.0
2018-May-22 11:30N 29°60' W 093°56'0 0.0
2018-May-22 11:00N 29°60' W 093°56'0 0.0
2018-May-22 10:27N 29°60' W 093°56'0 0.0
2018-May-22 10:00N 29°60' W 093°56'0 0.0
2018-May-22 09:30N 29°60' W 093°56'0 0.0
2018-May-22 09:00N 29°60' W 093°56'0 0.0
2018-May-22 08:30N 29°60' W 093°56'0 0.0
2018-May-22 08:00N 29°60' W 093°56'0 0.0
2018-May-22 07:30N 29°60' W 093°56'0 0.0
2018-May-22 07:00N 29°60' W 093°56'0 0.0
2018-May-22 06:30N 29°60' W 093°56'0 0.0
2018-May-22 06:00N 29°60' W 093°56'0 0.0
2018-May-22 05:30N 29°60' W 093°56'0 0.0
2018-May-22 05:00N 29°60' W 093°56'0 0.0
2018-May-22 04:30N 29°60' W 093°56'0 0.0
2018-May-22 03:57N 29°60' W 093°56'0 0.0
2018-May-22 03:30N 29°60' W 093°56'0 0.0
2018-May-22 03:00N 29°60' W 093°56'0 0.0
2018-May-22 02:30N 29°60' W 093°56'0 0.0
2018-May-22 02:00N 29°60' W 093°56'0 0.0
2018-May-22 01:30N 29°60' W 093°56'0 0.0
2018-May-22 01:00N 29°60' W 093°56'0 0.0
2018-May-22 00:30N 29°60' W 093°56'0 0.0
2018-May-22 00:00N 29°60' W 093°56'0 0.0
2018-May-21 23:30N 29°60' W 093°56'0 0.0
2018-May-21 23:00N 29°60' W 093°56'0 0.0
2018-May-21 22:30N 29°60' W 093°56'0 0.0
2018-May-21 22:00N 29°60' W 093°56'0 0.0
2018-May-21 21:30N 29°60' W 093°56'0 0.0
2018-May-21 21:00N 29°60' W 093°56'0 0.0
2018-May-21 20:30N 29°60' W 093°56'0 0.0
2018-May-21 20:00N 29°60' W 093°56'0 0.0
2018-May-21 19:30N 29°60' W 093°56'0 0.0
2018-May-21 19:00N 29°60' W 093°56'0 0.0
2018-May-21 18:30N 29°60' W 093°56'0 0.0
2018-May-21 18:00N 29°60' W 093°56'0 0.0
2018-May-21 17:30N 29°60' W 093°56'0 0.0
2018-May-21 17:00N 29°60' W 093°56'0 0.0
2018-May-21 16:30N 29°60' W 093°56'0 0.0
2018-May-21 16:00N 29°60' W 093°56'0 0.0
2018-May-21 15:30N 29°60' W 093°56'0 0.0
2018-May-21 15:00N 29°60' W 093°56'0 0.0
2018-May-21 14:27N 29°60' W 093°56'0 0.0
2018-May-21 14:00N 29°60' W 093°56'0 0.0
2018-May-21 13:30N 29°60' W 093°56'0 0.0
2018-May-21 13:00N 29°60' W 093°56'0 0.0
2018-May-21 12:30N 29°60' W 093°56'0 0.0
2018-May-21 12:00N 29°60' W 093°56'0 0.0
2018-May-21 11:30N 29°60' W 093°56'0 0.0
2018-May-21 11:00N 29°60' W 093°56'0 0.0
2018-May-21 10:30N 29°60' W 093°56'0 0.0
2018-May-21 10:00N 29°60' W 093°56'0 0.0
2018-May-21 09:27N 29°60' W 093°56'0 0.0
2018-May-21 09:00N 29°60' W 093°56'0 0.0
2018-May-21 08:30N 29°60' W 093°56'0 0.0
2018-May-21 08:00N 29°60' W 093°56'0 0.0
2018-May-21 07:30N 29°60' W 093°56'0 0.0
2018-May-21 07:00N 29°60' W 093°56'0 0.0
2018-May-21 06:30N 29°60' W 093°56'0 0.0
2018-May-21 06:00N 29°60' W 093°56'0 0.0
2018-May-21 05:30N 29°60' W 093°56'0 0.0
2018-May-21 05:00N 29°60' W 093°56'0 0.0
2018-May-21 04:30N 29°60' W 093°56'0 0.0
2018-May-21 04:00N 29°60' W 093°56'0 0.0
2018-May-21 03:30N 29°60' W 093°56'0 0.0
2018-May-21 03:00N 29°60' W 093°56'0 0.0
2018-May-21 02:30N 29°60' W 093°56'0 0.0
2018-May-21 02:00N 29°60' W 093°56'0 0.0
2018-May-21 01:30N 29°60' W 093°56'0 0.0
2018-May-21 01:00N 29°60' W 093°56'0 0.0
2018-May-21 00:30N 29°60' W 093°56'0 0.0
2018-May-21 00:00N 29°60' W 093°56'0 0.0
2018-May-20 23:30N 29°60' W 093°56'0 0.0
2018-May-20 23:00N 29°60' W 093°56'0 0.0
2018-May-20 22:30N 29°60' W 093°56'0 0.0
2018-May-20 22:00N 29°60' W 093°56'0 0.0
2018-May-20 21:30N 29°60' W 093°56'0 0.0
2018-May-20 21:00N 29°60' W 093°56'0 0.0
2018-May-20 20:30N 29°60' W 093°56'0 0.0
2018-May-20 20:00N 29°60' W 093°56'0 0.0
2018-May-20 19:30N 29°60' W 093°56'0 0.0
2018-May-20 19:00N 29°60' W 093°56'0 0.0
2018-May-20 18:30N 29°60' W 093°56'0 0.0
2018-May-20 18:00N 29°60' W 093°56'0 0.0
2018-May-20 17:30N 29°60' W 093°56'0 0.0
2018-May-20 16:57N 29°60' W 093°56'0 0.0
2018-May-20 16:30N 29°60' W 093°56'0 0.0
2018-May-20 16:00N 29°60' W 093°56'0 0.0
2018-May-20 15:30N 29°60' W 093°56'0 0.0
2018-May-20 15:00N 29°60' W 093°56'0 0.0
2018-May-20 14:30N 29°60' W 093°56'0 0.0
2018-May-20 14:00N 29°60' W 093°56'0 0.0
2018-May-20 13:30N 29°60' W 093°56'0 0.0
2018-May-20 13:00N 29°60' W 093°56'0 0.0
2018-May-20 12:30N 29°60' W 093°56'0 0.0
2018-May-20 11:57N 29°60' W 093°56'0 0.0
2018-May-20 11:30N 29°60' W 093°56'0 0.0
2018-May-20 11:00N 29°60' W 093°56'0 0.0
2018-May-20 10:30N 29°60' W 093°56'0 0.0
2018-May-20 10:00N 29°60' W 093°56'0 0.0
2018-May-20 09:30N 29°60' W 093°56'0 0.0
2018-May-20 09:00N 29°60' W 093°56'0 0.0
2018-May-20 08:30N 29°60' W 093°56'0 0.0
2018-May-20 08:00N 29°60' W 093°56'0 0.0
2018-May-20 07:30N 29°60' W 093°56'0 0.0
2018-May-20 07:00N 29°60' W 093°56'0 0.0
2018-May-20 06:30N 29°60' W 093°56'0 0.0
2018-May-20 06:00N 29°60' W 093°56'0 0.0
2018-May-20 05:30N 29°60' W 093°56'0 0.0
2018-May-20 05:00N 29°60' W 093°56'0 0.0
2018-May-20 04:30N 29°60' W 093°56'0 0.0
2018-May-20 04:00N 29°60' W 093°56'0 0.0
2018-May-20 03:30N 29°60' W 093°56'0 0.0
2018-May-20 03:00N 29°60' W 093°56'0 0.0
2018-May-20 02:30N 29°60' W 093°56'0 0.0
2018-May-20 02:00N 29°60' W 093°56'0 0.0
2018-May-20 01:30N 29°60' W 093°56'0 0.0
2018-May-20 01:00N 29°60' W 093°56'0 0.0
2018-May-20 00:27N 29°60' W 093°56'0 0.0
2018-May-20 00:00N 29°60' W 093°56'0 0.0
2018-May-19 23:30N 29°60' W 093°56'0 0.0
2018-May-19 23:00N 29°60' W 093°56'0 0.0
2018-May-19 22:30N 29°60' W 093°56'0 0.0
2018-May-19 22:00N 29°60' W 093°56'2 4.7
2018-May-19 21:30N 29°59' W 093°54'2 4.5
2018-May-19 21:00N 29°58' W 093°51'3 5.4
2018-May-19 20:30N 29°56' W 093°53'3 6.7
2018-May-19 20:00N 29°53' W 093°55'4 7.1
2018-May-19 19:30N 29°50' W 093°57'3 6.8
2018-May-19 19:00N 29°47' W 093°57'4 8.4
2018-May-19 18:30N 29°44' W 093°53'5 9.8
2018-May-19 18:00N 29°40' W 093°50'611.2
2018-May-19 17:30N 29°35' W 093°47'611.5
2018-May-19 17:00N 29°31' W 093°42'610.2
2018-May-19 16:28N 29°26' W 093°40'2 5.5
2018-May-19 16:00N 29°23' W 093°40'4 0.4
2018-May-19 06:11N 29°26' W 093°37'0 0.0
2018-May-19 04:47N 29°26' W 093°37'0 0.2
2018-May-19 04:29N 29°26' W 093°37'0 0.1
2018-May-19 03:56N 29°26' W 093°37'0 0.1
2018-May-19 03:29N 29°26' W 093°37'0 0.0
2018-May-19 02:56N 29°26' W 093°37'0 0.0
2018-May-19 02:23N 29°26' W 093°37'0 0.0
2018-May-19 01:59N 29°26' W 093°37'0 0.0
2018-May-18 23:47N 29°26' W 093°37'0 0.0
2018-May-18 23:20N 29°26' W 093°37'0 0.0
2018-May-18 20:44N 29°26' W 093°37'0 0.0
2018-May-18 20:29N 29°26' W 093°37'0 0.0
2018-May-18 19:59N 29°26' W 093°37'0 0.0
2018-May-18 19:14N 29°26' W 093°37'0 0.0
2018-May-18 18:59N 29°26' W 093°37'0 0.0
2018-May-18 18:29N 29°26' W 093°37'0 0.0
2018-May-18 17:59N 29°26' W 093°37'0 0.0
2018-May-18 17:29N 29°26' W 093°37'0 0.0
2018-May-18 16:59N 29°26' W 093°37'0 0.0
2018-May-18 16:29N 29°26' W 093°37'0 0.0
2018-May-18 15:59N 29°26' W 093°37'0 0.0
2018-May-18 15:29N 29°26' W 093°37'0 0.0
2018-May-18 14:59N 29°26' W 093°37'0 0.0
2018-May-18 14:26N 29°26' W 093°37'0 0.0
2018-May-18 13:59N 29°26' W 093°37'0 0.0
2018-May-18 13:26N 29°26' W 093°37'0 0.0
2018-May-18 12:38N 29°26' W 093°37'0 0.0
2018-May-18 12:17N 29°26' W 093°37'0 0.0
2018-May-18 11:56N 29°26' W 093°37'0 0.0
2018-May-18 11:26N 29°26' W 093°37'0 0.0
2018-May-18 10:50N 29°26' W 093°37'0 0.0
2018-May-18 10:23N 29°26' W 093°37'0 0.0
2018-May-18 09:56N 29°26' W 093°37'0 0.0
2018-May-18 09:29N 29°26' W 093°37'0 0.0
2018-May-18 08:56N 29°26' W 093°37'0 0.0
2018-May-18 08:29N 29°26' W 093°37'0 0.0
2018-May-18 07:59N 29°26' W 093°37'0 0.0
2018-May-18 07:29N 29°26' W 093°37'0 0.0
2018-May-18 06:59N 29°26' W 093°37'0 0.0
2018-May-18 06:29N 29°26' W 093°37'0 0.0
2018-May-18 05:56N 29°26' W 093°37'0 0.0
2018-May-18 05:29N 29°26' W 093°37'0 0.0
2018-May-18 04:59N 29°26' W 093°37'0 0.0
2018-May-18 04:29N 29°26' W 093°37'0 0.0
2018-May-18 03:56N 29°26' W 093°37'0 0.0
2018-May-18 03:29N 29°26' W 093°37'0 0.0
2018-May-18 02:59N 29°26' W 093°37'0 0.0
2018-May-18 02:29N 29°26' W 093°37'0 0.0
2018-May-18 01:59N 29°26' W 093°37'0 0.0
2018-May-18 01:29N 29°26' W 093°37'0 0.0
2018-May-18 00:59N 29°26' W 093°37'0 0.0
2018-May-18 00:29N 29°26' W 093°37'0 0.0
2018-May-17 23:56N 29°26' W 093°37'0 0.0
2018-May-17 23:29N 29°26' W 093°37'0 0.0
2018-May-17 22:59N 29°26' W 093°37'0 0.0
2018-May-17 22:29N 29°26' W 093°37'0 0.0
2018-May-17 21:59N 29°26' W 093°37'0 0.0
2018-May-17 21:26N 29°26' W 093°37'0 0.0
2018-May-17 20:59N 29°26' W 093°37'0 0.0
2018-May-17 20:29N 29°26' W 093°37'0 0.0
2018-May-17 19:47N 29°26' W 093°37'0 0.0
2018-May-17 19:29N 29°26' W 093°37'0 0.0
2018-May-17 18:59N 29°26' W 093°37'0 0.0
2018-May-17 18:29N 29°26' W 093°37'0 0.0
2018-May-17 17:59N 29°26' W 093°37'0 0.1
2018-May-17 17:29N 29°26' W 093°37'0 0.0
2018-May-17 16:56N 29°26' W 093°37'0 0.0
2018-May-17 16:29N 29°26' W 093°37'0 0.0
2018-May-17 15:59N 29°26' W 093°37'0 0.0
2018-May-17 15:29N 29°26' W 093°37'0 0.0
2018-May-17 14:56N 29°26' W 093°37'0 0.0
2018-May-17 14:29N 29°26' W 093°37'0 0.0
2018-May-17 13:59N 29°26' W 093°37'0 0.0
2018-May-17 13:29N 29°26' W 093°37'0 0.0
2018-May-17 12:59N 29°26' W 093°37'0 0.0
2018-May-17 12:23N 29°26' W 093°37'0 0.0
2018-May-17 11:59N 29°26' W 093°37'0 0.0
2018-May-17 11:29N 29°26' W 093°37'0 0.0
2018-May-17 10:56N 29°26' W 093°37'0 0.0
2018-May-17 10:26N 29°26' W 093°37'0 0.0
2018-May-17 09:53N 29°26' W 093°37'0 0.0
2018-May-17 09:29N 29°26' W 093°37'0 0.0
2018-May-17 08:59N 29°26' W 093°37'0 0.0
2018-May-17 08:20N 29°26' W 093°37'0 0.0
2018-May-17 07:53N 29°26' W 093°37'0 0.1
2018-May-17 07:20N 29°26' W 093°37'0 0.0
2018-May-17 06:50N 29°26' W 093°37'0 0.0
2018-May-17 06:29N 29°26' W 093°37'0 0.0
2018-May-17 05:59N 29°26' W 093°37'0 0.0
2018-May-17 05:29N 29°26' W 093°37'0 0.1
2018-May-17 04:56N 29°26' W 093°37'0 0.0
2018-May-17 04:26N 29°26' W 093°37'0 0.0
2018-May-17 03:59N 29°26' W 093°37'0 0.0
2018-May-17 03:23N 29°26' W 093°37'0 0.1
2018-May-17 02:59N 29°26' W 093°37'0 0.1
2018-May-17 02:29N 29°26' W 093°37'0 0.1
2018-May-17 01:59N 29°26' W 093°37'0 0.0
2018-May-17 01:29N 29°26' W 093°37'0 0.1
2018-May-17 00:59N 29°26' W 093°37'0 0.0
2018-May-17 00:29N 29°26' W 093°37'0 0.0
2018-May-16 23:59N 29°26' W 093°37'0 0.0
2018-May-16 23:29N 29°26' W 093°37'0 0.0
2018-May-16 22:59N 29°26' W 093°37'0 0.0
2018-May-16 22:29N 29°26' W 093°37'0 0.0
2018-May-16 21:59N 29°26' W 093°37'0 0.0
2018-May-16 21:29N 29°26' W 093°37'0 0.1
2018-May-16 20:59N 29°26' W 093°37'0 0.1
2018-May-16 20:29N 29°26' W 093°37'0 0.1
2018-May-16 19:56N 29°26' W 093°37'0 0.1
2018-May-16 19:29N 29°26' W 093°37'0 0.1
2018-May-16 18:59N 29°26' W 093°37'0 0.1
2018-May-16 18:29N 29°26' W 093°37'0 0.1
2018-May-16 17:59N 29°26' W 093°37'0 0.1
2018-May-16 17:29N 29°26' W 093°37'0 0.1
2018-May-16 16:59N 29°26' W 093°37'0 0.0
2018-May-16 16:29N 29°26' W 093°37'0 0.0
2018-May-16 15:59N 29°26' W 093°37'0 0.0
2018-May-16 15:29N 29°26' W 093°37'0 0.0
2018-May-16 14:59N 29°26' W 093°37'0 0.0
2018-May-16 14:29N 29°26' W 093°37'0 0.0
2018-May-16 13:59N 29°26' W 093°37'0 0.0
2018-May-16 13:29N 29°26' W 093°37'0 0.0
2018-May-16 12:59N 29°26' W 093°37'0 0.1
2018-May-16 12:26N 29°26' W 093°37'0 0.0
2018-May-16 11:59N 29°26' W 093°37'0 0.1
2018-May-16 11:29N 29°26' W 093°37'0 0.0
2018-May-16 10:59N 29°26' W 093°37'0 0.1
2018-May-16 10:29N 29°26' W 093°37'0 0.1
2018-May-16 09:59N 29°26' W 093°37'0 0.0
2018-May-16 09:29N 29°26' W 093°37'0 0.0
2018-May-16 08:59N 29°26' W 093°37'0 0.1
2018-May-16 08:20N 29°26' W 093°37'0 0.0
2018-May-16 07:59N 29°26' W 093°37'0 0.0
2018-May-16 07:29N 29°26' W 093°37'0 0.0
2018-May-16 06:59N 29°26' W 093°37'0 0.1
2018-May-16 06:26N 29°26' W 093°37'0 0.1
2018-May-16 05:56N 29°26' W 093°37'0 0.2
2018-May-16 05:29N 29°26' W 093°38'0 0.2
2018-May-16 04:59N 29°26' W 093°37'0 0.1
2018-May-16 04:29N 29°26' W 093°37'0 0.1
2018-May-16 03:59N 29°26' W 093°37'  

Dump ship's entire track history